Time;durP1;ratioP1;P1;durP2;ratioP2;P2;SDS_P1;SDS_P2;PMS_P1;PMS_P2;Temp;Humidity;BMP_temperature;BMP_pressure;BME280_temperature;BME280_humidity;BME280_pressure;Samples;Min_cycle;Max_cycle;Signal;HPM_P1;HPM_P2
2022/12/31 00:01:57;;;;;;;;;;;;;;;26.41;49.64;97927.14;595129;238;68525;-67
2022/12/31 00:04:24;;;;;;;;;;;;;;;26.40;49.65;97925.55;595039;238;63084;-67
2022/12/31 00:06:51;;;;;;;;;;;;;;;26.40;48.66;97939.02;595104;237;68589;-70
2022/12/31 00:09:21;;;;;;;;;;;;;;;26.39;48.43;97934.73;595106;237;67756;-70
2022/12/31 00:11:49;;;;;;;;;;;;;;;26.39;49.04;97945.52;595088;238;62799;-70
2022/12/31 00:14:17;;;;;;;;;;;;;;;26.39;50.03;97942.81;595218;238;66475;-70
2022/12/31 00:16:45;;;;;;;;;;;;;;;26.37;48.18;97937.70;595079;238;68196;-70
2022/12/31 00:19:12;;;;;;;;;;;;;;;26.37;48.72;97942.29;595155;237;65097;-70
2022/12/31 00:21:40;;;;;;;;;;;;;;;26.35;49.29;97945.25;595168;238;68525;-70
2022/12/31 00:24:07;;;;;;;;;;;;;;;26.35;49.93;97948.78;595068;238;68849;-70
2022/12/31 00:26:35;;;;;;;;;;;;;;;26.34;49.01;97943.66;595101;238;65250;-70
2022/12/31 00:29:03;;;;;;;;;;;;;;;26.32;47.47;97946.62;595165;238;68551;-70
2022/12/31 00:31:32;;;;;;;;;;;;;;;26.33;48.41;97952.84;595199;237;68509;-70
2022/12/31 00:34:00;;;;;;;;;;;;;;;26.32;48.60;97956.60;595002;238;65099;-70
2022/12/31 00:36:30;;;;;;;;;;;;;;;26.31;48.41;97952.31;595196;238;68567;-70
2022/12/31 00:38:58;;;;;;;;;;;;;;;26.30;48.57;97958.77;595017;238;68824;-70
2022/12/31 00:41:27;;;;;;;;;;;;;;;26.29;48.65;97968.75;595035;237;63187;-70
2022/12/31 00:43:54;;;;;;;;;;;;;;;26.29;49.24;97965.26;595111;237;66412;-70
2022/12/31 00:46:22;;;;;;;;;;;;;;;26.28;49.50;97967.16;595091;237;68479;-70
2022/12/31 00:48:50;;;;;;;;;;;;;;;26.28;49.53;97977.13;595022;237;65443;-70
2022/12/31 00:51:19;;;;;;;;;;;;;;;26.25;50.28;97958.84;595130;237;69214;-70
2022/12/31 00:53:47;;;;;;;;;;;;;;;26.23;50.23;97956.41;595137;237;68835;-70
2022/12/31 00:56:16;;;;;;;;;;;;;;;26.23;50.06;97959.11;595112;238;65062;-70
2022/12/31 00:58:44;;;;;;;;;;;;;;;26.23;50.48;97964.50;595390;237;66738;-70
2022/12/31 01:01:19;;;;;;;;;;;;;;;26.21;49.46;97961.27;595150;238;66633;-70
2022/12/31 01:03:47;;;;;;;;;;;;;;;26.20;48.58;97967.77;595124;237;62929;-67
2022/12/31 01:06:14;;;;;;;;;;;;;;;26.19;49.16;97968.86;595245;238;66799;-67
2022/12/31 01:08:42;;;;;;;;;;;;;;;26.19;49.84;97963.47;595150;238;66622;-67
2022/12/31 01:11:28;;;;;;;;;;;;;;;26.18;49.04;97958.34;595042;238;62891;-67
2022/12/31 01:13:53;;;;;;;;;;;;;;;26.17;48.40;97971.02;594847;237;68875;-70
2022/12/31 01:16:22;;;;;;;;;;;;;;;26.18;47.74;97963.73;594346;238;66613;-70
2022/12/31 01:18:50;;;;;;;;;;;;;;;26.16;47.98;97961.31;595068;237;63026;-67
2022/12/31 01:21:18;;;;;;;;;;;;;;;26.14;50.28;97955.42;595026;238;68983;-67
2022/12/31 01:23:46;;;;;;;;;;;;;;;26.12;49.02;97960.28;595047;238;69430;-67
2022/12/31 01:26:14;;;;;;;;;;;;;;;26.12;49.03;97962.98;595102;238;65071;-67
2022/12/31 01:28:42;;;;;;;;;;;;;;;26.12;49.27;97957.59;595069;238;68802;-67
2022/12/31 01:31:13;;;;;;;;;;;;;;;26.11;49.11;97951.41;595097;237;68445;-67
2022/12/31 01:33:42;;;;;;;;;;;;;;;26.11;49.98;97955.99;595222;237;65058;-67
2022/12/31 01:36:13;;;;;;;;;;;;;;;26.10;47.83;97959.75;595051;238;68864;-67
2022/12/31 01:38:41;;;;;;;;;;;;;;;26.08;48.32;97957.36;595059;237;69085;-67
2022/12/31 01:41:16;;;;;;;;;;;;;;;26.07;49.11;97955.73;595149;238;65064;-67
2022/12/31 01:43:44;;;;;;;;;;;;;;;26.06;48.09;97962.22;595120;238;68826;-70
2022/12/31 01:46:13;;;;;;;;;;;;;;;26.06;48.33;97959.52;595116;238;66620;-70
2022/12/31 01:48:42;;;;;;;;;;;;;;;26.05;49.11;97957.89;595152;237;66517;-70
2022/12/31 01:51:10;;;;;;;;;;;;;;;26.05;51.14;97965.97;595040;237;68827;-70
2022/12/31 01:53:37;;;;;;;;;;;;;;;26.03;49.26;97959.28;595247;237;68766;-70
2022/12/31 01:56:06;;;;;;;;;;;;;;;26.03;50.53;97959.28;595191;237;65058;-70
2022/12/31 01:58:35;;;;;;;;;;;;;;;26.02;48.83;97963.05;595136;238;66288;-70
2022/12/31 02:01:03;;;;;;;;;;;;;;;26.01;49.13;97962.25;595168;238;68599;-71
2022/12/31 02:03:30;;;;;;;;;;;;;;;25.99;50.07;97961.72;595049;237;64979;-71
2022/12/31 02:05:59;;;;;;;;;;;;;;;25.98;50.01;97957.43;595169;237;68820;-71
2022/12/31 02:08:27;;;;;;;;;;;;;;;25.98;49.74;97962.81;595017;238;68660;-71
2022/12/31 02:10:54;;;;;;;;;;;;;;;25.97;49.71;97961.19;595082;238;65181;-67
2022/12/31 02:13:22;;;;;;;;;;;;;;;25.96;49.38;97967.67;595184;238;68859;-67
2022/12/31 02:15:54;;;;;;;;;;;;;;;25.96;49.30;97964.17;595150;238;68714;-67
2022/12/31 02:18:25;;;;;;;;;;;;;;;25.96;49.22;97964.98;595062;238;65034;-67
2022/12/31 02:21:03;;;;;;;;;;;;;;;25.95;49.20;97970.66;594908;238;68690;-67
2022/12/31 02:23:48;;;;;;;;;;;;;;;25.94;49.48;97960.95;595024;238;66586;-67
2022/12/31 02:26:32;;;;;;;;;;;;;;;25.93;49.42;97959.36;595136;238;63852;-67
2022/12/31 02:29:20;;;;;;;;;;;;;;;25.91;49.23;97967.70;594974;238;66468;-67
2022/12/31 02:31:49;;;;;;;;;;;;;;;25.89;49.61;97976.08;595197;238;68671;-67
2022/12/31 02:34:18;;;;;;;;;;;;;;;25.88;49.50;97970.95;595057;238;65351;-67
2022/12/31 02:36:46;;;;;;;;;;;;;;;25.86;49.13;97973.95;595092;238;68868;-67
2022/12/31 02:39:14;;;;;;;;;;;;;;;25.87;49.65;97980.13;595092;237;68877;-67
2022/12/31 02:41:50;;;;;;;;;;;;;;;25.84;49.78;97978.80;595310;237;65121;-71
2022/12/31 02:44:20;;;;;;;;;;;;;;;25.84;49.61;97976.11;595170;238;68835;-70
2022/12/31 02:46:52;;;;;;;;;;;;;;;25.83;50.40;97981.73;595091;237;68267;-70
2022/12/31 02:49:21;;;;;;;;;;;;;;;25.82;49.80;97985.52;594442;237;63845;-70
2022/12/31 02:51:56;;;;;;;;;;;;;;;25.82;50.39;97986.31;595111;238;65078;-70
2022/12/31 02:54:31;;;;;;;;;;;;;;;25.80;50.93;97983.09;594969;238;68975;-70
2022/12/31 02:56:59;;;;;;;;;;;;;;;25.79;50.57;97989.57;595043;237;62735;-70
2022/12/31 03:02:18;;;;;;;;;;;;;;;25.78;50.43;97992.53;595142;238;69496;-70
2022/12/31 03:04:47;;;;;;;;;;;;;;;25.77;50.88;97996.31;595240;237;63122;-70
2022/12/31 03:07:16;;;;;;;;;;;;;;;25.75;51.87;97996.58;595202;237;66539;-70
2022/12/31 03:09:43;;;;;;;;;;;;;;;25.74;50.69;98003.06;595122;238;66206;-70
2022/12/31 03:14:51;;;;;;;;;;;;;;;25.73;51.15;97993.38;590377;238;68690;-70
2022/12/31 03:17:18;;;;;;;;;;;;;;;25.72;50.15;97997.14;595170;238;69449;-70
2022/12/31 03:22:32;;;;;;;;;;;;;;;25.71;50.45;97995.54;595217;237;68954;-70
2022/12/31 03:27:47;;;;;;;;;;;;;;;25.68;50.38;97996.10;595176;238;65749;-71
2022/12/31 03:30:16;;;;;;;;;;;;;;;25.68;49.86;97998.80;595223;237;68847;-71
2022/12/31 03:32:44;;;;;;;;;;;;;;;25.67;50.99;97997.16;595197;238;68780;-71
2022/12/31 03:35:13;;;;;;;;;;;;;;;25.66;52.24;98003.64;595160;238;65111;-71
2022/12/31 03:37:40;;;;;;;;;;;;;;;25.65;50.05;98002.05;595197;238;66238;-71
2022/12/31 03:40:10;;;;;;;;;;;;;;;25.65;51.15;97991.27;595201;238;68879;-70
2022/12/31 03:42:37;;;;;;;;;;;;;;;25.64;50.55;98003.11;595106;237;65099;-71
2022/12/31 03:45:05;;;;;;;;;;;;;;;25.63;50.65;97996.13;595214;238;68506;-71
2022/12/31 03:47:33;;;;;;;;;;;;;;;25.63;52.13;98004.20;595101;238;68512;-67
2022/12/31 03:50:00;;;;;;;;;;;;;;;25.61;50.46;98004.46;589302;237;65185;-67
2022/12/31 03:52:28;;;;;;;;;;;;;;;25.61;51.84;98011.73;588717;241;68549;-67
2022/12/31 03:54:55;;;;;;;;;;;;;;;25.60;49.37;98012.83;588780;240;68411;-67
2022/12/31 03:57:23;;;;;;;;;;;;;;;25.59;51.42;98011.20;588757;241;65094;-67
2022/12/31 03:59:50;;;;;;;;;;;;;;;25.59;51.68;98013.89;588646;241;68380;-67
2022/12/31 04:02:18;;;;;;;;;;;;;;;25.59;51.10;98011.20;588703;241;68570;-67
2022/12/31 04:04:45;;;;;;;;;;;;;;;25.57;52.96;98013.39;588764;240;65085;-67
2022/12/31 04:07:13;;;;;;;;;;;;;;;25.56;51.81;98012.56;588799;241;66735;-67
2022/12/31 04:09:40;;;;;;;;;;;;;;;25.55;51.53;98012.86;588677;241;69362;-67
2022/12/31 04:12:08;;;;;;;;;;;;;;;25.54;51.21;98014.75;588748;240;64945;-67
2022/12/31 04:14:36;;;;;;;;;;;;;;;25.54;49.71;98013.95;588746;241;68856;-67
2022/12/31 04:17:03;;;;;;;;;;;;;;;25.52;50.18;98011.52;588644;240;68616;-67
2022/12/31 04:19:30;;;;;;;;;;;;;;;25.51;51.06;98015.30;588747;240;63116;-67
2022/12/31 04:21:58;;;;;;;;;;;;;;;25.51;50.79;98014.47;588679;241;66869;-67
2022/12/31 04:24:26;;;;;;;;;;;;;;;25.51;50.56;98020.69;588879;240;66585;-67
2022/12/31 04:26:53;;;;;;;;;;;;;;;25.50;51.78;98023.64;588765;241;65071;-67
2022/12/31 04:29:21;;;;;;;;;;;;;;;25.47;51.38;98028.48;588787;240;66316;-67
2022/12/31 04:31:48;;;;;;;;;;;;;;;25.48;50.22;98034.67;588644;241;66587;-67
2022/12/31 04:34:16;;;;;;;;;;;;;;;25.47;50.69;98033.06;588696;241;63130;-67
2022/12/31 04:36:43;;;;;;;;;;;;;;;25.47;52.74;98030.38;588702;240;66874;-67
2022/12/31 04:39:11;;;;;;;;;;;;;;;25.45;50.30;98036.05;588762;241;66681;-67
2022/12/31 04:41:38;;;;;;;;;;;;;;;25.44;51.29;98034.42;588617;241;62918;-67
2022/12/31 04:44:06;;;;;;;;;;;;;;;25.43;52.60;98035.52;588742;240;66605;-67
2022/12/31 04:46:33;;;;;;;;;;;;;;;25.42;51.56;98033.09;588711;241;66480;-67
2022/12/31 04:49:01;;;;;;;;;;;;;;;25.42;50.80;98035.77;588789;238;63900;-67
2022/12/31 04:51:29;;;;;;;;;;;;;;;25.41;51.57;98032.28;588796;240;68816;-67
2022/12/31 04:53:58;;;;;;;;;;;;;;;25.41;53.23;98044.94;588551;241;68743;-67
2022/12/31 04:56:25;;;;;;;;;;;;;;;25.40;51.42;98054.08;588820;240;65034;-67
2022/12/31 04:58:53;;;;;;;;;;;;;;;25.38;52.45;98046.30;588798;240;68724;-70
2022/12/31 05:01:21;;;;;;;;;;;;;;;25.38;51.13;98051.67;588709;241;66643;-71
2022/12/31 05:03:50;;;;;;;;;;;;;;;25.37;51.50;98044.69;588781;241;62871;-71
2022/12/31 05:06:19;;;;;;;;;;;;;;;25.37;51.14;98060.01;588738;241;68990;-71
2022/12/31 05:08:47;;;;;;;;;;;;;;;25.36;50.85;98058.41;588578;241;68890;-67
2022/12/31 05:11:14;;;;;;;;;;;;;;;25.35;52.81;98060.30;588656;241;65122;-67
2022/12/31 05:13:42;;;;;;;;;;;;;;;25.34;53.88;98055.98;588667;240;68824;-67
2022/12/31 05:16:09;;;;;;;;;;;;;;;25.33;52.13;98064.34;588788;240;68327;-67
2022/12/31 05:18:37;;;;;;;;;;;;;;;25.33;52.26;98067.03;588701;241;65052;-67
2022/12/31 05:21:06;;;;;;;;;;;;;;;25.32;51.95;98077.00;588661;241;68831;-67
2022/12/31 05:23:33;;;;;;;;;;;;;;;25.31;53.24;98078.05;588681;241;69132;-67
2022/12/31 05:26:01;;;;;;;;;;;;;;;25.29;51.94;98074.85;588760;241;65033;-67
2022/12/31 05:28:28;;;;;;;;;;;;;;;25.29;51.84;98077.55;588747;240;68894;-70
2022/12/31 05:30:56;;;;;;;;;;;;;;;25.28;51.45;98073.22;588703;241;68662;-70
2022/12/31 05:33:24;;;;;;;;;;;;;;;25.25;51.45;98079.95;588627;241;65079;-70
2022/12/31 05:35:51;;;;;;;;;;;;;;;25.27;51.54;98086.97;588762;240;68873;-70
2022/12/31 05:38:18;;;;;;;;;;;;;;;25.25;52.96;98087.23;588836;240;68654;-71
2022/12/31 05:40:46;;;;;;;;;;;;;;;25.24;50.87;98085.63;588557;241;65390;-67
2022/12/31 05:43:13;;;;;;;;;;;;;;;25.23;53.05;98092.06;588508;240;68498;-67
2022/12/31 05:45:41;;;;;;;;;;;;;;;25.22;52.19;98088.58;588672;241;68691;-67
2022/12/31 05:48:09;;;;;;;;;;;;;;;25.21;53.02;98089.66;588714;238;65092;-67
2022/12/31 05:50:36;;;;;;;;;;;;;;;25.21;51.41;98086.97;588755;241;68912;-67
2022/12/31 05:53:04;;;;;;;;;;;;;;;25.19;51.93;98093.70;588784;240;66713;-67
2022/12/31 05:55:31;;;;;;;;;;;;;;;25.18;53.32;98095.59;588627;241;62921;-67
2022/12/31 05:57:59;;;;;;;;;;;;;;;25.17;52.07;98099.34;588712;240;68823;-67
2022/12/31 06:00:26;;;;;;;;;;;;;;;25.17;53.26;98103.92;588755;241;68721;-67
2022/12/31 06:02:54;;;;;;;;;;;;;;;25.16;52.46;98111.19;588693;241;65065;-67
2022/12/31 06:05:21;;;;;;;;;;;;;;;25.16;51.17;98118.46;588826;241;66676;-67
2022/12/31 06:07:51;;;;;;;;;;;;;;;25.15;51.89;98111.45;588836;240;49728;-67
2022/12/31 06:10:20;;;;;;;;;;;;;;;25.14;52.66;98121.38;588483;241;63026;-66
2022/12/31 06:12:47;;;;;;;;;;;;;;;25.13;52.01;98114.39;588662;240;66535;-67
2022/12/31 06:15:15;;;;;;;;;;;;;;;25.13;51.51;98113.59;588729;241;66664;-67
2022/12/31 06:17:42;;;;;;;;;;;;;;;25.12;52.84;98125.41;588794;241;63063;-66
2022/12/31 06:20:12;;;;;;;;;;;;;;;25.11;53.13;98121.13;588756;241;68773;-67
2022/12/31 06:22:39;;;;;;;;;;;;;;;25.10;51.71;98124.88;588743;241;68686;-67
2022/12/31 06:25:07;;;;;;;;;;;;;;;25.10;52.63;98130.25;588692;240;65146;-67
2022/12/31 06:27:34;;;;;;;;;;;;;;;25.09;52.29;98131.34;588769;240;68937;-67
2022/12/31 06:30:02;;;;;;;;;;;;;;;25.08;52.25;98143.19;588647;241;68458;-67
2022/12/31 06:32:31;;;;;;;;;;;;;;;25.07;51.75;98144.24;588794;241;65813;-67
2022/12/31 06:35:07;;;;;;;;;;;;;;;25.07;52.30;98142.36;587735;241;47681;-67
2022/12/31 06:37:35;;;;;;;;;;;;;;;25.06;51.62;98146.13;588727;240;69167;-67
2022/12/31 06:40:02;;;;;;;;;;;;;;;25.05;52.74;98146.42;588680;241;65061;-67
2022/12/31 06:42:31;;;;;;;;;;;;;;;25.04;53.53;98142.90;588777;241;69084;-67
2022/12/31 06:44:59;;;;;;;;;;;;;;;25.03;52.03;98147.48;588835;241;68637;-67
2022/12/31 06:47:26;;;;;;;;;;;;;;;25.02;51.99;98151.25;588743;241;64972;-70
2022/12/31 06:49:54;;;;;;;;;;;;;;;25.01;52.87;98149.63;588692;238;68918;-70
2022/12/31 06:52:21;;;;;;;;;;;;;;;25.01;53.47;98159.58;588703;241;68595;-70
2022/12/31 06:54:49;;;;;;;;;;;;;;;25.00;53.20;98156.09;588644;241;65016;-71
2022/12/31 06:57:17;;;;;;;;;;;;;;;24.99;51.89;98159.86;588741;241;68520;-70
2022/12/31 06:59:45;;;;;;;;;;;;;;;24.99;51.94;98159.03;588680;240;68741;-70
2022/12/31 07:02:23;;;;;;;;;;;;;;;24.98;53.47;98160.92;588657;241;65247;-67
2022/12/31 07:04:52;;;;;;;;;;;;;;;24.97;52.79;98162.01;588715;240;68900;-67
2022/12/31 07:07:24;;;;;;;;;;;;;;;24.99;53.46;98169.79;588678;241;68783;-67
2022/12/31 07:10:02;;;;;;;;;;;;;;;24.97;52.94;98172.77;588643;241;62958;-67
2022/12/31 07:12:33;;;;;;;;;;;;;;;24.98;52.66;98177.05;588588;241;47067;-66
2022/12/31 07:15:11;;;;;;;;;;;;;;;25.00;52.74;98174.11;588663;241;68538;-67
2022/12/31 07:17:46;;;;;;;;;;;;;;;24.99;50.96;98173.31;588513;241;64905;-66
2022/12/31 07:20:15;;;;;;;;;;;;;;;25.00;51.00;98174.91;587826;241;67487;-66
2022/12/31 07:22:44;;;;;;;;;;;;;;;25.02;50.53;98174.66;588393;241;66740;-67
2022/12/31 07:25:16;;;;;;;;;;;;;;;25.02;50.87;98180.84;588435;241;65145;-67
2022/12/31 07:27:46;;;;;;;;;;;;;;;25.05;49.87;98184.08;588439;241;66637;-66
2022/12/31 07:30:15;;;;;;;;;;;;;;;25.06;50.78;98182.98;588367;240;66521;-66
2022/12/31 07:32:44;;;;;;;;;;;;;;;25.08;51.13;98180.84;588384;241;65142;-67
2022/12/31 07:35:14;;;;;;;;;;;;;;;25.09;51.98;98188.63;588656;241;68804;-67
2022/12/31 07:37:43;;;;;;;;;;;;;;;25.11;50.27;98185.68;584533;241;68526;-67
2022/12/31 07:40:12;;;;;;;;;;;;;;;25.12;51.58;98187.28;584531;241;65105;-67
2022/12/31 07:42:53;;;;;;;;;;;;;;;25.13;50.61;98178.95;588866;240;68843;-67
2022/12/31 07:45:22;;;;;;;;;;;;;;;25.17;50.73;98187.31;588891;240;68094;-67
2022/12/31 07:47:50;;;;;;;;;;;;;;;25.17;50.95;98181.94;588557;238;65083;-67
2022/12/31 07:50:18;;;;;;;;;;;;;;;25.18;52.32;98187.05;588793;241;68369;-67
2022/12/31 07:52:46;;;;;;;;;;;;;;;25.21;52.78;98185.71;588775;241;66374;-67
2022/12/31 07:55:15;;;;;;;;;;;;;;;25.21;52.48;98191.09;588441;241;65084;-67
2022/12/31 07:57:47;;;;;;;;;;;;;;;25.22;52.78;98188.11;588773;241;68526;-67
2022/12/31 08:00:15;;;;;;;;;;;;;;;25.25;52.90;98192.15;588680;241;68406;-66
2022/12/31 08:02:58;;;;;;;;;;;;;;;25.27;50.63;98194.59;588670;241;47495;-67
2022/12/31 08:05:30;;;;;;;;;;;;;;;25.29;52.73;98190.55;588716;241;68531;-67
2022/12/31 08:08:06;;;;;;;;;;;;;;;25.31;53.39;98196.44;588733;241;68748;-67
2022/12/31 08:10:35;;;;;;;;;;;;;;;25.33;53.79;98199.67;588438;241;65091;-67
2022/12/31 08:13:06;;;;;;;;;;;;;;;25.35;53.62;98202.91;588693;241;68508;-67
2022/12/31 08:15:39;;;;;;;;;;;;;;;25.37;52.47;98200.77;588498;241;51287;-67
2022/12/31 08:18:08;;;;;;;;;;;;;;;25.38;53.12;98202.36;588331;241;47655;-67
2022/12/31 08:20:37;;;;;;;;;;;;;;;25.40;52.54;98202.08;588451;241;69102;-67
2022/12/31 08:23:23;;;;;;;;;;;;;;;25.43;52.65;98204.25;588317;241;68813;-67
2022/12/31 08:28:46;;;;;;;;;;;;;;;25.48;52.22;98201.53;615837;228;39015;-70
2022/12/31 08:31:15;;;;;;;;;;;;;;;25.49;52.60;98191.59;615511;230;68715;-69
2022/12/31 08:33:44;;;;;;;;;;;;;;;25.52;51.78;98191.05;614958;230;65309;-70
2022/12/31 08:36:16;;;;;;;;;;;;;;;25.55;53.44;98195.88;614772;230;66648;-70
2022/12/31 08:38:45;;;;;;;;;;;;;;;25.56;52.79;98200.97;615042;230;69776;-70
2022/12/31 08:41:17;;;;;;;;;;;;;;;25.58;52.13;98195.33;615057;228;64928;-70
2022/12/31 08:43:46;;;;;;;;;;;;;;;25.60;52.60;98195.88;615325;230;68640;-70
2022/12/31 08:46:17;;;;;;;;;;;;;;;25.62;50.12;98194.52;615200;230;67195;-70
2022/12/31 08:48:47;;;;;;;;;;;;;;;25.64;50.66;98195.03;615190;230;46606;-69
2022/12/31 08:51:16;;;;;;;;;;;;;;;25.67;51.12;98193.69;615510;230;68783;-68
2022/12/31 08:53:44;;;;;;;;;;;;;;;25.69;50.92;98191.53;615440;230;64975;-68
2022/12/31 08:56:28;;;;;;;;;;;;;;;25.72;50.06;98196.37;615520;230;65105;-68
2022/12/31 08:58:57;;;;;;;;;;;;;;;25.72;51.23;98187.49;615494;230;66474;-67
2022/12/31 09:01:26;;;;;;;;;;;;;;;25.75;50.84;98182.36;615557;230;66480;-68
2022/12/31 09:04:01;;;;;;;;;;;;;;;25.77;52.45;98177.52;615576;230;62922;-68
2022/12/31 09:06:48;;;;;;;;;;;;;;;25.79;51.58;98175.36;615580;230;66685;-67
2022/12/31 09:09:20;;;;;;;;;;;;;;;25.79;51.08;98174.55;615483;230;68844;-67
2022/12/31 09:11:51;;;;;;;;;;;;;;;25.80;51.54;98173.47;615317;230;62713;-67
2022/12/31 09:14:23;;;;;;;;;;;;;;;25.81;52.01;98167.81;615203;230;68746;-68
2022/12/31 09:17:01;;;;;;;;;;;;;;;25.83;51.01;98162.97;614647;230;66388;-68
2022/12/31 09:19:29;;;;;;;;;;;;;;;25.85;52.55;98168.90;614682;230;65006;-67
2022/12/31 09:21:56;;;;;;;;;;;;;;;25.86;51.20;98162.45;615582;230;68736;-67
2022/12/31 09:24:24;;;;;;;;;;;;;;;25.88;50.53;98165.65;615503;230;68646;-67
2022/12/31 09:26:53;;;;;;;;;;;;;;;25.89;50.26;98156.51;615415;229;65128;-67
2022/12/31 09:29:29;;;;;;;;;;;;;;;25.92;50.82;98157.84;615530;230;68329;-67
2022/12/31 09:31:59;;;;;;;;;;;;;;;25.93;50.08;98155.95;615374;230;68681;-67
2022/12/31 09:34:28;;;;;;;;;;;;;;;25.91;44.70;98154.33;613625;230;65092;-68
2022/12/31 09:36:57;;;;;;;;;;;;;;;25.97;47.78;98155.11;615134;228;69052;-69
2022/12/31 09:39:38;;;;;;;;;;;;;;;25.98;48.13;98145.16;614466;230;68573;-69
2022/12/31 09:42:24;;;;;;;;;;;;;;;26.01;48.90;98144.61;614617;230;62917;-68
2022/12/31 09:44:56;;;;;;;;;;;;;;;26.02;49.15;98147.01;615392;230;66585;-68
2022/12/31 09:47:28;;;;;;;;;;;;;;;26.04;50.11;98141.36;615373;230;68551;-69
2022/12/31 09:49:57;;;;;;;;;;;;;;;26.05;50.38;98140.27;614946;230;65010;-69
2022/12/31 09:52:26;;;;;;;;;;;;;;;26.05;48.93;98127.59;615441;230;66512;-69
2022/12/31 09:54:55;;;;;;;;;;;;;;;26.07;48.19;98128.13;615413;230;68377;-69
2022/12/31 09:57:28;;;;;;;;;;;;;;;26.09;50.48;98133.25;615382;230;65760;-69
2022/12/31 10:00:00;;;;;;;;;;;;;;;26.10;51.03;98127.57;615479;230;66486;-69
2022/12/31 10:02:32;;;;;;;;;;;;;;;26.10;50.06;98122.19;615515;230;66446;-69
2022/12/31 10:05:17;;;;;;;;;;;;;;;26.12;50.00;98119.23;606538;230;64997;-69
2022/12/31 10:07:48;;;;;;;;;;;;;;;26.12;48.95;98113.84;615576;230;68544;-69
2022/12/31 10:10:17;;;;;;;;;;;;;;;26.13;50.06;98113.54;613656;230;68465;-69
2022/12/31 10:13:04;;;;;;;;;;;;;;;26.15;50.48;98109.78;615340;230;62366;-69
2022/12/31 10:15:35;;;;;;;;;;;;;;;26.16;50.66;98106.80;615563;230;66540;-68
2022/12/31 10:18:13;;;;;;;;;;;;;;;26.16;50.03;98098.71;615548;230;68367;-68
2022/12/31 10:20:58;;;;;;;;;;;;;;;26.18;50.33;98107.33;615140;230;62822;-68
2022/12/31 10:23:43;;;;;;;;;;;;;;;26.18;51.12;98095.75;615541;230;68687;-68
2022/12/31 10:26:12;;;;;;;;;;;;;;;26.18;50.23;98083.08;599666;235;68785;-68
2022/12/31 10:28:56;;;;;;;;;;;;;;;26.19;50.29;98092.80;603721;232;65458;-68
2022/12/31 10:31:25;;;;;;;;;;;;;;;26.21;50.02;98095.19;608059;233;66498;-67
2022/12/31 10:33:57;;;;;;;;;;;;;;;26.21;50.18;98095.99;608141;233;66368;-68
2022/12/31 10:36:28;;;;;;;;;;;;;;;26.21;49.16;98084.41;608097;233;62859;-68
2022/12/31 10:39:14;;;;;;;;;;;;;;;26.22;50.24;98088.70;608056;233;68695;-68
2022/12/31 10:41:42;;;;;;;;;;;;;;;26.22;48.95;98084.14;608101;233;68821;-68
2022/12/31 10:44:12;;;;;;;;;;;;;;;26.22;50.39;98081.45;608151;230;62777;-68
2022/12/31 10:46:41;;;;;;;;;;;;;;;26.24;49.38;98084.65;608162;233;66135;-68
2022/12/31 10:49:19;;;;;;;;;;;;;;;26.24;50.60;98081.16;608111;233;68531;-68
2022/12/31 10:51:54;;;;;;;;;;;;;;;26.25;49.50;98075.50;607941;233;65103;-67
2022/12/31 10:54:39;;;;;;;;;;;;;;;26.25;49.24;98066.62;608101;233;66743;-68
2022/12/31 10:57:27;;;;;;;;;;;;;;;26.25;50.67;98064.72;608110;233;68545;-68
2022/12/31 11:00:02;;;;;;;;;;;;;;;26.26;51.38;98060.13;608059;233;63007;-68
2022/12/31 11:02:43;;;;;;;;;;;;;;;26.26;50.32;98052.84;608024;233;68616;-68
2022/12/31 11:05:12;;;;;;;;;;;;;;;26.26;50.39;98050.16;608099;233;68550;-68
2022/12/31 11:07:41;;;;;;;;;;;;;;;26.26;49.29;98050.16;608181;233;62826;-68
2022/12/31 11:10:10;;;;;;;;;;;;;;;26.27;51.00;98048.26;608111;233;66432;-68
2022/12/31 11:12:45;;;;;;;;;;;;;;;26.26;51.69;98044.77;608104;233;68536;-68
2022/12/31 11:15:23;;;;;;;;;;;;;;;26.26;50.67;98044.77;608122;233;64991;-69
2022/12/31 11:17:53;;;;;;;;;;;;;;;26.26;50.09;98038.58;608145;233;66340;-67
2022/12/31 11:20:28;;;;;;;;;;;;;;;26.26;50.88;98041.27;608170;233;66715;-67
2022/12/31 11:23:03;;;;;;;;;;;;;;;26.26;49.11;98047.45;608195;233;62748;-67
2022/12/31 11:25:35;;;;;;;;;;;;;;;26.27;50.61;98050.95;608249;233;66686;-67
2022/12/31 11:28:20;;;;;;;;;;;;;;;26.27;51.24;98045.56;614266;230;66191;-67
2022/12/31 11:30:49;;;;;;;;;;;;;;;26.27;50.21;98056.34;616036;230;63029;-67
2022/12/31 11:33:30;;;;;;;;;;;;;;;26.27;50.42;98051.78;616308;230;66585;-67
2022/12/31 11:36:06;;;;;;;;;;;;;;;26.27;51.25;98041.00;616318;230;68388;-67
2022/12/31 11:38:35;;;;;;;;;;;;;;;26.26;50.50;98044.77;616273;230;62863;-67
2022/12/31 11:41:04;;;;;;;;;;;;;;;26.28;49.72;98055.28;616334;230;68797;-67
2022/12/31 11:43:38;;;;;;;;;;;;;;;26.28;48.04;98047.99;616114;230;68798;-65
2022/12/31 11:46:23;;;;;;;;;;;;;;;26.28;48.95;98050.69;616063;230;63806;-67
2022/12/31 11:49:03;;;;;;;;;;;;;;;26.30;51.14;98048.52;599845;236;66776;-65
2022/12/31 11:51:42;;;;;;;;;;;;;;;26.29;49.82;98052.28;611272;230;68455;-67
2022/12/31 11:54:20;;;;;;;;;;;;;;;26.29;51.14;98044.20;616086;230;65085;-66
2022/12/31 11:56:49;;;;;;;;;;;;;;;26.30;50.30;98051.22;614658;230;68679;-66
2022/12/31 11:59:17;;;;;;;;;;;;;;;26.31;50.06;98041.23;614429;227;66177;-67
2022/12/31 12:02:02;;;;;;;;;;;;;;;26.32;50.78;98042.84;615428;230;62731;-67
2022/12/31 12:04:30;;;;;;;;;;;;;;;26.32;50.16;98042.84;615325;230;68265;-67
2022/12/31 12:06:57;;;;;;;;;;;;;;;26.33;49.72;98033.69;614664;230;68590;-67
2022/12/31 12:09:27;;;;;;;;;;;;;;;26.33;51.41;98041.77;615332;230;65045;-67
2022/12/31 12:11:59;;;;;;;;;;;;;;;26.34;50.97;98046.06;615406;230;68795;-69
2022/12/31 12:14:37;;;;;;;;;;;;;;;26.34;50.08;98040.67;615148;230;65881;-69
2022/12/31 12:17:10;;;;;;;;;;;;;;;26.35;49.69;98045.80;615388;230;65134;-69
2022/12/31 12:19:39;;;;;;;;;;;;;;;26.37;49.17;98042.00;615142;230;66181;-70
2022/12/31 12:22:11;;;;;;;;;;;;;;;26.37;49.99;98048.19;614844;230;66027;-71
2022/12/31 12:24:38;;;;;;;;;;;;;;;26.38;50.61;98048.99;613644;230;62755;-70
2022/12/31 12:27:07;;;;;;;;;;;;;;;26.37;50.11;98045.50;614751;230;68658;-70
2022/12/31 12:29:35;;;;;;;;;;;;;;;26.38;50.34;98041.70;614245;230;66484;-70
2022/12/31 12:32:07;;;;;;;;;;;;;;;26.40;50.51;98041.44;614705;231;62790;-70
2022/12/31 12:34:37;;;;;;;;;;;;;;;26.41;51.27;98035.78;614523;230;70195;-71
2022/12/31 12:37:06;;;;;;;;;;;;;;;26.42;49.42;98036.58;614566;231;68723;-70
2022/12/31 12:39:34;;;;;;;;;;;;;;;26.43;50.53;98036.28;614649;231;62741;-70
2022/12/31 12:42:04;;;;;;;;;;;;;;;26.43;50.19;98035.48;614674;231;69304;-70
2022/12/31 12:44:40;;;;;;;;;;;;;;;26.44;50.45;98045.19;613873;231;48596;-71
2022/12/31 12:47:15;;;;;;;;;;;;;;;26.45;49.46;98036.01;614669;231;65135;-69
2022/12/31 12:49:52;;;;;;;;;;;;;;;26.45;50.08;98047.59;614661;231;66528;-71
2022/12/31 12:52:33;;;;;;;;;;;;;;;26.45;50.72;98050.28;614128;230;48028;-71
2022/12/31 12:55:22;;;;;;;;;;;;;;;26.46;51.03;98051.08;614692;231;64634;-71
2022/12/31 12:58:00;;;;;;;;;;;;;;;26.46;51.90;98054.58;614719;231;54381;-70
2022/12/31 13:00:40;;;;;;;;;;;;;;;26.46;50.87;98057.27;614678;231;54559;-70
2022/12/31 13:03:29;;;;;;;;;;;;;;;26.48;50.96;98059.70;611307;230;42653;-70
2022/12/31 13:06:04;;;;;;;;;;;;;;;26.48;50.60;98057.00;614730;231;49162;-70
2022/12/31 13:09:00;;;;;;;;;;;;;;;26.49;50.60;98061.30;600674;230;51875;-70
2022/12/31 13:11:51;;;;;;;;;;;;;;;26.50;49.86;98063.73;614750;231;47191;-70
2022/12/31 13:14:26;;;;;;;;;;;;;;;26.50;50.65;98076.41;614348;231;50660;-70
2022/12/31 13:17:17;;;;;;;;;;;;;;;26.51;49.62;98072.64;613715;230;46671;-70
2022/12/31 13:20:07;;;;;;;;;;;;;;;26.50;50.37;98087.98;614192;230;47234;-70
2022/12/31 13:22:49;;;;;;;;;;;;;;;26.51;48.67;98091.52;586803;239;52199;-70